Arjay, Kentucky
Current Conditions -  °F | °C
As of 6:55 AM on Sunday 23 Nov 2014 (Local Time) from K1A6 Reporting Station
Overcast Overcast  
Wind Chill: 43°   Ceiling: 5000
Heat Index: 43°   Visibility: 10mi
Dew Point: 35°   Wind: 3mph
Humidity: 72%   Direction: 180°S
Pressure: 30.08"   Gusts: NA
Location:  36.8°N, 83.65°W
Report Text: K1A6 231155Z AUTO 18003KT 10SM OVC050 06/02 A3008 RMK AO2 T00630015 10063 20010
Loading
Personal Weather Stations






























Interactive Weather Map New forecast layout! Learn more

10-Day Weather Forecast

Advertisements
Track Severe Weather on mobile